createdAt,value
2018-05-27T00:00:04.066Z,79.00
2018-05-27T00:02:32.305Z,79.70
2018-05-27T00:05:00.538Z,79.30
2018-05-27T00:07:29.557Z,79.50
2018-05-27T00:09:57.798Z,79.30
2018-05-27T00:12:26.063Z,79.40
2018-05-27T00:14:54.308Z,79.90
2018-05-27T00:17:22.549Z,79.80
2018-05-27T00:19:51.557Z,79.70
2018-05-27T00:22:19.821Z,79.70
2018-05-27T00:24:48.833Z,79.70
2018-05-27T00:27:17.069Z,79.70
2018-05-27T00:29:45.329Z,79.70
2018-05-27T00:32:13.568Z,80.00
2018-05-27T00:34:41.810Z,80.00
2018-05-27T00:37:10.830Z,80.50
2018-05-27T00:39:39.091Z,80.40
2018-05-27T00:42:07.352Z,80.00
2018-05-27T00:44:36.359Z,79.70
2018-05-27T00:47:04.606Z,79.70
2018-05-27T00:49:32.867Z,79.70
2018-05-27T00:52:01.110Z,80.60
2018-05-27T00:54:29.357Z,79.80
2018-05-27T00:56:57.619Z,79.40
2018-05-27T00:59:26.643Z,79.50
2018-05-27T01:01:54.882Z,79.50
2018-05-27T01:04:23.129Z,79.50
2018-05-27T01:06:51.378Z,79.40
2018-05-27T01:09:19.626Z,80.00
2018-05-27T01:11:48.635Z,79.20
2018-05-27T01:14:16.890Z,79.10
2018-05-27T01:16:45.904Z,79.20
2018-05-27T01:19:14.149Z,79.20
2018-05-27T01:21:42.377Z,78.80
2018-05-27T01:24:10.630Z,79.60
2018-05-27T01:26:39.000Z,78.90
2018-05-27T01:29:07.261Z,79.10
2018-05-27T01:31:35.479Z,79.30
2018-05-27T01:34:03.728Z,79.20
2018-05-27T01:36:31.969Z,79.30
2018-05-27T01:39:01.194Z,79.00
2018-05-27T01:41:30.202Z,78.80
2018-05-27T01:43:58.444Z,78.60
2018-05-27T01:46:26.695Z,78.40
2018-05-27T01:48:54.934Z,78.20
2018-05-27T01:51:23.178Z,78.30
2018-05-27T01:53:52.194Z,78.70
2018-05-27T01:56:20.438Z,78.60
2018-05-27T01:58:48.945Z,78.60
2018-05-27T02:01:17.191Z,78.60
2018-05-27T02:03:45.429Z,78.40
2018-05-27T02:06:13.682Z,78.80
2018-05-27T02:08:41.924Z,79.00
2018-05-27T02:11:10.176Z,79.10
2018-05-27T02:13:38.412Z,79.20
2018-05-27T02:16:06.705Z,79.10
2018-05-27T02:18:34.917Z,78.80
2018-05-27T02:21:03.150Z,78.30
2018-05-27T02:23:31.394Z,78.20
2018-05-27T02:25:59.629Z,78.40
2018-05-27T02:28:27.870Z,78.50
2018-05-27T02:30:56.430Z,78.70
2018-05-27T02:33:25.447Z,78.10
2018-05-27T02:35:53.691Z,78.00
2018-05-27T02:38:22.701Z,78.10
2018-05-27T02:40:50.963Z,78.00
2018-05-27T02:43:19.984Z,78.90
2018-05-27T02:45:48.226Z,78.90
2018-05-27T02:48:17.235Z,79.20
2018-05-27T02:50:45.478Z,79.10
2018-05-27T02:53:13.731Z,79.20
2018-05-27T02:55:41.980Z,80.00
2018-05-27T02:58:10.231Z,79.40
2018-05-27T03:00:39.251Z,79.60
2018-05-27T03:03:07.479Z,79.60
2018-05-27T03:05:35.723Z,79.50
2018-05-27T03:08:04.158Z,79.80
2018-05-27T03:10:32.402Z,79.90
2018-05-27T03:13:00.643Z,80.00
2018-05-27T03:15:28.895Z,80.30
2018-05-27T03:17:57.146Z,80.30
2018-05-27T03:20:25.371Z,80.30
2018-05-27T03:22:53.821Z,80.40
2018-05-27T03:25:22.070Z,80.40
2018-05-27T03:27:51.070Z,81.30
2018-05-27T03:30:20.088Z,80.20
2018-05-27T03:32:48.331Z,80.20
2018-05-27T03:35:16.566Z,80.00
2018-05-27T03:37:44.816Z,80.10
2018-05-27T03:40:13.046Z,80.00
2018-05-27T03:42:41.299Z,79.90
2018-05-27T03:45:09.535Z,80.10
2018-05-27T03:47:37.774Z,80.10
2018-05-27T03:50:06.030Z,80.20
2018-05-27T03:52:34.353Z,80.50
2018-05-27T03:55:03.522Z,80.20
2018-05-27T03:57:31.765Z,80.20
2018-05-27T04:00:00.015Z,80.00
2018-05-27T04:02:28.254Z,79.90
2018-05-27T04:05:14.350Z,79.60
2018-05-27T04:08:00.342Z,79.60
2018-05-27T04:10:28.578Z,79.80
2018-05-27T04:12:56.836Z,79.90
2018-05-27T04:15:25.083Z,79.80
2018-05-27T04:17:54.186Z,79.60
2018-05-27T04:20:23.181Z,79.60
2018-05-27T04:22:51.470Z,79.40
2018-05-27T04:25:19.715Z,79.40
2018-05-27T04:27:48.704Z,79.80
2018-05-27T04:30:17.725Z,80.00
2018-05-27T04:32:46.019Z,79.50
2018-05-27T04:35:14.258Z,79.30
2018-05-27T04:37:43.281Z,79.30
2018-05-27T04:40:11.509Z,79.10
2018-05-27T04:42:40.114Z,79.00
2018-05-27T04:45:09.113Z,79.00
2018-05-27T04:47:37.355Z,78.90
2018-05-27T04:50:05.607Z,78.40
2018-05-27T04:52:33.842Z,79.20
2018-05-27T04:55:02.095Z,78.40
2018-05-27T04:57:30.328Z,78.60
2018-05-27T04:59:58.569Z,78.40
2018-05-27T05:02:26.813Z,78.80
2018-05-27T05:04:55.051Z,78.90
2018-05-27T05:07:23.306Z,78.70
2018-05-27T05:09:51.670Z,78.30
2018-05-27T05:12:20.665Z,77.20
2018-05-27T05:14:48.901Z,77.20
2018-05-27T05:17:17.142Z,76.80
2018-05-27T05:19:45.379Z,77.80
2018-05-27T05:22:14.449Z,77.60
2018-05-27T05:24:42.646Z,77.60
2018-05-27T05:27:11.651Z,75.60
2018-05-27T05:29:40.671Z,75.40
2018-05-27T05:32:08.907Z,75.30
2018-05-27T05:34:37.901Z,76.00
2018-05-27T05:37:06.919Z,76.40
2018-05-27T05:39:35.209Z,76.40
2018-05-27T05:42:03.469Z,76.60
2018-05-27T05:44:31.730Z,77.00
2018-05-27T05:47:00.742Z,77.20
2018-05-27T05:49:28.998Z,77.20
2018-05-27T05:51:58.022Z,76.90
2018-05-27T05:54:26.270Z,76.80
2018-05-27T05:56:55.277Z,75.80
2018-05-27T05:59:23.663Z,75.80
2018-05-27T06:01:51.893Z,75.10
2018-05-27T06:04:20.138Z,74.60
2018-05-27T06:06:48.582Z,74.30
2018-05-27T06:09:16.818Z,73.80
2018-05-27T06:11:45.126Z,73.00
2018-05-27T06:14:13.384Z,72.90
2018-05-27T06:16:41.614Z,74.00
2018-05-27T06:19:09.854Z,72.80
2018-05-27T06:21:38.951Z,71.70
2018-05-27T06:24:07.958Z,72.30
2018-05-27T06:26:36.199Z,72.30
2018-05-27T06:29:04.425Z,72.00
2018-05-27T06:31:32.674Z,71.10
2018-05-27T06:34:00.951Z,71.40
2018-05-27T06:36:29.198Z,71.20
2018-05-27T06:38:57.425Z,71.40
2018-05-27T06:41:25.689Z,71.50
2018-05-27T06:43:53.926Z,70.50
2018-05-27T06:46:22.170Z,70.40
2018-05-27T06:48:50.419Z,70.50
2018-05-27T06:51:18.713Z,70.40
2018-05-27T06:53:47.669Z,70.20
2018-05-27T06:56:16.963Z,69.10
2018-05-27T06:58:45.963Z,69.20
2018-05-27T07:01:14.194Z,69.20
2018-05-27T07:03:42.861Z,69.60
2018-05-27T07:06:11.103Z,69.60
2018-05-27T07:08:39.333Z,68.10
2018-05-27T07:11:07.956Z,68.00
2018-05-27T07:13:36.949Z,66.50
2018-05-27T07:16:05.186Z,66.50
2018-05-27T07:18:33.431Z,67.60
2018-05-27T07:21:01.688Z,65.40
2018-05-27T07:23:29.939Z,65.50
2018-05-27T07:25:58.930Z,65.30
2018-05-27T07:28:27.935Z,64.60
2018-05-27T07:30:56.991Z,64.20
2018-05-27T07:33:25.228Z,64.20
2018-05-27T07:35:53.458Z,67.70
2018-05-27T07:38:21.701Z,66.60
2018-05-27T07:40:49.945Z,66.40
2018-05-27T07:43:18.188Z,65.40
2018-05-27T07:45:46.508Z,65.40
2018-05-27T07:48:14.754Z,66.40
2018-05-27T07:50:43.760Z,63.00
2018-05-27T07:53:12.237Z,62.90
2018-05-27T07:55:40.466Z,63.40
2018-05-27T07:58:08.710Z,64.40
2018-05-27T08:00:36.958Z,64.80
2018-05-27T08:03:05.970Z,64.40
2018-05-27T08:05:34.214Z,64.40
2018-05-27T08:08:03.217Z,63.50
2018-05-27T08:10:32.218Z,63.30
2018-05-27T08:13:00.474Z,63.30
2018-05-27T08:15:29.481Z,62.90
2018-05-27T08:17:58.583Z,62.80
2018-05-27T08:20:27.606Z,63.50
2018-05-27T08:22:55.830Z,63.50
2018-05-27T08:25:24.833Z,61.50
2018-05-27T08:27:53.857Z,57.20
2018-05-27T08:30:22.113Z,57.20
2018-05-27T08:32:51.332Z,59.70
2018-05-27T08:35:19.566Z,59.60
2018-05-27T08:37:48.574Z,59.80
2018-05-27T08:40:17.589Z,60.80
2018-05-27T08:42:45.821Z,60.80
2018-05-27T08:45:14.086Z,62.20
2018-05-27T08:47:42.319Z,63.80
2018-05-27T08:50:10.553Z,64.30
2018-05-27T08:52:39.569Z,64.20
2018-05-27T08:55:07.806Z,64.00
2018-05-27T08:57:36.051Z,63.80
2018-05-27T09:00:04.304Z,62.80
2018-05-27T09:02:32.539Z,63.60
2018-05-27T09:05:00.790Z,65.20
2018-05-27T09:07:29.021Z,65.90
2018-05-27T09:09:57.282Z,63.00
2018-05-27T09:12:26.317Z,62.80
2018-05-27T09:14:54.818Z,62.80
2018-05-27T09:17:23.007Z,62.70
2018-05-27T09:19:51.246Z,63.00
2018-05-27T09:22:20.544Z,61.00
2018-05-27T09:24:48.812Z,62.30
2018-05-27T09:27:17.779Z,63.80
2018-05-27T09:29:46.793Z,63.50
2018-05-27T09:32:15.034Z,63.50
2018-05-27T09:34:44.045Z,59.90
2018-05-27T09:37:12.630Z,59.80
2018-05-27T09:39:40.870Z,59.70
2018-05-27T09:42:09.111Z,59.90
2018-05-27T09:44:37.370Z,61.00
2018-05-27T09:47:05.598Z,59.60
2018-05-27T09:49:33.848Z,60.20
2018-05-27T09:52:02.096Z,58.90
2018-05-27T09:54:30.363Z,58.70
2018-05-27T09:56:58.655Z,58.80
2018-05-27T09:59:26.893Z,61.60
2018-05-27T10:01:55.906Z,60.30
2018-05-27T10:04:24.141Z,60.30
2018-05-27T10:06:52.396Z,61.20
2018-05-27T10:09:20.631Z,59.50
2018-05-27T10:11:49.700Z,60.20
2018-05-27T10:14:17.890Z,60.20
2018-05-27T10:16:46.905Z,62.30
2018-05-27T10:19:15.150Z,62.20
2018-05-27T10:21:43.386Z,62.40
2018-05-27T10:24:11.806Z,62.80
2018-05-27T10:26:40.819Z,58.50
2018-05-27T10:29:09.823Z,59.20
2018-05-27T10:31:38.074Z,59.10
2018-05-27T10:34:07.073Z,57.00
2018-05-27T10:36:36.076Z,56.50
2018-05-27T10:39:04.335Z,56.40
2018-05-27T10:41:33.338Z,56.50
2018-05-27T10:44:01.579Z,56.40
2018-05-27T10:46:29.825Z,58.40
2018-05-27T10:48:58.089Z,58.40
2018-05-27T10:51:26.327Z,57.40
2018-05-27T10:53:55.325Z,59.30
2018-05-27T10:56:24.337Z,60.00
2018-05-27T10:58:52.569Z,59.90
2018-05-27T11:01:20.802Z,59.00
2018-05-27T11:03:49.045Z,58.20
2018-05-27T11:06:18.050Z,54.70
2018-05-27T11:08:46.303Z,54.70
2018-05-27T11:11:14.534Z,57.60
2018-05-27T11:13:42.774Z,56.00
2018-05-27T11:16:11.027Z,56.30
2018-05-27T11:18:39.264Z,55.30
2018-05-27T11:21:07.502Z,56.90
2018-05-27T11:23:35.745Z,56.50
2018-05-27T11:26:03.987Z,57.80
2018-05-27T11:28:32.250Z,55.70
2018-05-27T11:31:00.477Z,56.00
2018-05-27T11:33:28.720Z,56.20
2018-05-27T11:35:56.971Z,55.00
2018-05-27T11:38:25.209Z,57.30
2018-05-27T11:40:54.214Z,60.90
2018-05-27T11:43:23.430Z,57.70
2018-05-27T11:45:51.666Z,57.60
2018-05-27T11:48:19.894Z,58.00
2018-05-27T11:50:48.142Z,56.50
2018-05-27T11:53:17.146Z,57.30
2018-05-27T11:55:45.382Z,57.30
2018-05-27T11:58:13.686Z,56.80
2018-05-27T12:00:42.694Z,55.70
2018-05-27T12:03:10.935Z,55.60
2018-05-27T12:08:13.874Z,55.10
2018-05-27T12:10:42.105Z,55.30
2018-05-27T12:13:10.343Z,55.10
2018-05-27T12:15:38.599Z,55.90
2018-05-27T12:18:06.835Z,51.90
2018-05-27T12:20:35.090Z,52.60
2018-05-27T12:23:03.332Z,54.40
2018-05-27T12:25:31.785Z,53.30
2018-05-27T12:28:00.790Z,52.20
2018-05-27T12:30:29.034Z,52.20
2018-05-27T12:32:57.278Z,52.00
2018-05-27T12:35:25.514Z,48.00
2018-05-27T12:37:53.758Z,50.20
2018-05-27T12:40:22.090Z,49.90
2018-05-27T12:42:50.317Z,49.30
2018-05-27T12:45:18.566Z,49.20
2018-05-27T12:47:46.801Z,50.10
2018-05-27T12:50:15.057Z,49.90
2018-05-27T12:52:44.082Z,48.10
2018-05-27T12:55:12.325Z,48.00
2018-05-27T12:57:41.327Z,47.10
2018-05-27T13:00:09.582Z,47.00
2018-05-27T13:02:37.826Z,47.50
2018-05-27T13:05:06.074Z,49.70
2018-05-27T13:07:34.306Z,49.00
2018-05-27T13:10:03.324Z,46.80
2018-05-27T13:12:32.389Z,47.10
2018-05-27T13:15:00.625Z,47.10
2018-05-27T13:17:28.863Z,47.40
2018-05-27T13:19:57.865Z,48.10
2018-05-27T13:22:26.105Z,48.10
2018-05-27T13:24:54.354Z,47.60
2018-05-27T13:27:22.594Z,50.40
2018-05-27T13:29:50.846Z,48.20
2018-05-27T13:32:19.858Z,50.00
2018-05-27T13:34:48.114Z,50.00
2018-05-27T13:37:17.118Z,46.80
2018-05-27T13:39:46.123Z,46.70
2018-05-27T13:42:14.378Z,46.70
2018-05-27T13:44:43.373Z,42.80
2018-05-27T13:47:12.691Z,46.20
2018-05-27T13:49:40.930Z,46.20
2018-05-27T13:52:10.673Z,41.00
2018-05-27T13:54:38.924Z,40.90
2018-05-27T13:57:07.157Z,42.90
2018-05-27T13:59:35.407Z,47.40
2018-05-27T14:02:03.647Z,45.00
2018-05-27T14:04:31.898Z,44.50
2018-05-27T14:07:00.144Z,45.60
2018-05-27T14:09:28.705Z,40.30
2018-05-27T14:11:56.947Z,40.80
2018-05-27T14:14:25.178Z,43.70
2018-05-27T14:16:53.425Z,42.90
2018-05-27T14:19:22.429Z,43.10
2018-05-27T14:21:50.661Z,43.10
2018-05-27T14:24:18.974Z,42.90
2018-05-27T14:29:21.653Z,43.00
2018-05-27T14:31:49.895Z,44.60
2018-05-27T14:34:18.135Z,41.70
2018-05-27T14:36:46.382Z,42.20
2018-05-27T14:39:15.385Z,44.70
2018-05-27T14:41:44.394Z,42.80
2018-05-27T14:44:12.878Z,42.70
2018-05-27T14:46:41.122Z,41.60
2018-05-27T14:49:09.353Z,41.60
2018-05-27T14:51:37.603Z,40.90
2018-05-27T14:54:05.861Z,42.60
2018-05-27T14:56:34.873Z,44.20
2018-05-27T14:59:03.118Z,44.20
2018-05-27T15:01:32.122Z,45.20
2018-05-27T15:04:01.153Z,46.60
2018-05-27T15:06:29.381Z,46.50
2018-05-27T15:08:57.621Z,45.90
2018-05-27T15:11:25.872Z,44.40
2018-05-27T15:13:54.118Z,46.00
2018-05-27T15:16:23.119Z,46.30
2018-05-27T15:18:51.365Z,46.30
2018-05-27T15:21:19.616Z,47.40
2018-05-27T15:23:47.846Z,49.20
2018-05-27T15:26:16.121Z,49.30
2018-05-27T15:28:44.611Z,49.00
2018-05-27T15:31:12.850Z,49.20
2018-05-27T15:33:41.087Z,48.70
2018-05-27T15:36:09.535Z,48.50
2018-05-27T15:38:37.779Z,49.10
2018-05-27T15:41:06.019Z,49.50
2018-05-27T15:43:34.271Z,50.20
2018-05-27T15:46:02.506Z,49.10
2018-05-27T15:48:30.767Z,49.80
2018-05-27T15:50:59.002Z,49.50
2018-05-27T15:53:27.245Z,49.70
2018-05-27T15:55:55.487Z,49.90
2018-05-27T15:58:23.721Z,48.30
2018-05-27T16:00:51.972Z,48.40
2018-05-27T16:03:20.226Z,49.20
2018-05-27T16:05:48.473Z,49.10
2018-05-27T16:08:16.715Z,49.50
2018-05-27T16:10:45.004Z,51.00
2018-05-27T16:13:13.231Z,51.00
2018-05-27T16:15:41.854Z,52.40
2018-05-27T16:18:10.085Z,52.90
2018-05-27T16:20:38.327Z,52.80
2018-05-27T16:23:06.586Z,53.20
2018-05-27T16:25:34.830Z,53.90
2018-05-27T16:28:03.071Z,52.20
2018-05-27T16:30:31.310Z,52.20
2018-05-27T16:32:59.549Z,52.70
2018-05-27T16:35:28.570Z,52.60
2018-05-27T16:37:57.774Z,53.20
2018-05-27T16:40:26.020Z,53.20
2018-05-27T16:42:55.776Z,51.90
2018-05-27T16:45:24.023Z,51.90
2018-05-27T16:47:53.038Z,53.30
2018-05-27T16:50:21.317Z,53.20
2018-05-27T16:52:50.313Z,53.80
2018-05-27T16:55:18.570Z,53.70
2018-05-27T16:57:46.827Z,53.90
2018-05-27T17:00:15.102Z,53.90
2018-05-27T17:02:43.289Z,53.70
2018-05-27T17:05:12.318Z,53.30
2018-05-27T17:07:40.565Z,53.30
2018-05-27T17:10:08.799Z,52.30
2018-05-27T17:12:37.039Z,52.20
2018-05-27T17:15:05.498Z,52.30
2018-05-27T17:17:33.730Z,52.50
2018-05-27T17:20:01.965Z,51.40
2018-05-27T17:22:30.209Z,50.30
2018-05-27T17:24:59.226Z,50.60
2018-05-27T17:27:27.467Z,50.60
2018-05-27T17:29:55.704Z,50.70
2018-05-27T17:32:23.952Z,51.30
2018-05-27T17:34:52.198Z,51.60
2018-05-27T17:37:20.425Z,52.50
2018-05-27T17:39:48.678Z,52.10
2018-05-27T17:42:16.918Z,50.30
2018-05-27T17:44:45.159Z,50.50
2018-05-27T17:47:13.411Z,50.70
2018-05-27T17:49:41.874Z,51.30
2018-05-27T17:52:10.110Z,51.90
2018-05-27T17:54:38.358Z,52.20
2018-05-27T17:57:06.593Z,52.10
2018-05-27T17:59:35.593Z,52.80
2018-05-27T18:02:04.598Z,53.20
2018-05-27T18:04:32.854Z,53.20
2018-05-27T18:07:01.855Z,52.90
2018-05-27T18:09:30.870Z,52.60
2018-05-27T18:11:59.118Z,52.60
2018-05-27T18:14:28.136Z,52.80
2018-05-27T18:16:56.390Z,52.80
2018-05-27T18:19:25.381Z,53.30
2018-05-27T18:21:53.622Z,53.30
2018-05-27T18:24:21.869Z,53.30
2018-05-27T18:26:50.121Z,53.30
2018-05-27T18:29:18.358Z,53.50
2018-05-27T18:31:46.625Z,53.10
2018-05-27T18:34:14.838Z,53.20
2018-05-27T18:36:43.222Z,54.10
2018-05-27T18:39:11.462Z,55.00
2018-05-27T18:41:39.696Z,55.30
2018-05-27T18:44:08.146Z,55.20
2018-05-27T18:46:37.145Z,55.70
2018-05-27T18:49:05.403Z,55.70
2018-05-27T18:51:33.641Z,57.20
2018-05-27T18:54:01.905Z,57.00
2018-05-27T18:56:30.135Z,58.20
2018-05-27T18:58:59.187Z,58.90
2018-05-27T19:01:27.399Z,58.80
2018-05-27T19:03:56.456Z,58.60
2018-05-27T19:06:24.694Z,58.50
2018-05-27T19:08:52.926Z,59.10
2018-05-27T19:11:21.165Z,59.60
2018-05-27T19:13:49.410Z,59.80
2018-05-27T19:16:17.654Z,58.90
2018-05-27T19:18:45.898Z,59.20
2018-05-27T19:21:14.139Z,59.30
2018-05-27T19:23:42.384Z,59.80
2018-05-27T19:26:10.709Z,60.00
2018-05-27T19:31:48.846Z,61.00
2018-05-27T19:34:17.121Z,61.00
2018-05-27T19:36:45.415Z,61.60
2018-05-27T19:39:13.716Z,62.40
2018-05-27T19:41:42.028Z,61.20
2018-05-27T19:44:10.306Z,62.60
2018-05-27T19:46:38.590Z,61.90
2018-05-27T19:49:06.893Z,62.70
2018-05-27T19:51:35.452Z,62.70
2018-05-27T19:54:03.718Z,62.00
2018-05-27T19:56:32.096Z,60.60
2018-05-27T19:59:00.420Z,59.20
2018-05-27T20:01:28.727Z,59.80
2018-05-27T20:03:57.070Z,60.20
2018-05-27T20:06:25.506Z,61.40
2018-05-27T20:08:53.856Z,60.50
2018-05-27T20:11:23.080Z,62.00
2018-05-27T20:13:51.419Z,61.40
2018-05-27T20:16:20.494Z,61.50
2018-05-27T20:18:48.793Z,61.50
2018-05-27T20:21:17.198Z,61.50
2018-05-27T20:23:45.480Z,62.10
2018-05-27T20:26:13.808Z,62.10
2018-05-27T20:28:42.098Z,62.50
2018-05-27T20:31:10.836Z,62.70
2018-05-27T20:33:39.134Z,63.80
2018-05-27T20:36:07.418Z,63.70
2018-05-27T20:38:35.720Z,63.10
2018-05-27T20:41:04.018Z,63.00
2018-05-27T20:43:33.086Z,64.00
2018-05-27T20:46:01.381Z,63.90
2018-05-27T20:48:29.690Z,64.00
2018-05-27T20:50:58.761Z,64.40
2018-05-27T20:53:27.069Z,64.20
2018-05-27T20:55:55.390Z,64.00
2018-05-27T20:58:23.762Z,64.40
2018-05-27T21:00:52.056Z,64.40
2018-05-27T21:03:20.384Z,64.50
2018-05-27T21:05:49.096Z,64.50
2018-05-27T21:08:17.377Z,64.80
2018-05-27T21:10:45.682Z,65.00
2018-05-27T21:13:14.789Z,65.70
2018-05-27T21:15:43.060Z,66.50
2018-05-27T21:18:11.667Z,66.20
2018-05-27T21:20:39.946Z,66.40
2018-05-27T21:23:08.240Z,66.20
2018-05-27T21:25:36.539Z,66.60
2018-05-27T21:28:04.817Z,67.00
2018-05-27T21:30:33.138Z,66.80
2018-05-27T21:33:01.443Z,66.80
2018-05-27T21:35:29.738Z,67.60
2018-05-27T21:37:58.025Z,66.70
2018-05-27T21:40:26.343Z,66.90
2018-05-27T21:42:54.653Z,66.40
2018-05-27T21:45:23.078Z,67.10
2018-05-27T21:47:51.446Z,67.00
2018-05-27T21:50:19.813Z,65.60
2018-05-27T21:52:48.098Z,66.40
2018-05-27T21:55:16.447Z,65.80
2018-05-27T21:57:44.743Z,66.20
2018-05-27T22:00:13.833Z,67.40
2018-05-27T22:02:42.114Z,67.40
2018-05-27T22:05:10.409Z,68.00
2018-05-27T22:07:38.694Z,68.40
2018-05-27T22:10:06.968Z,68.50
2018-05-27T22:12:35.254Z,69.00
2018-05-27T22:15:03.574Z,68.60
2018-05-27T22:17:31.899Z,68.40
2018-05-27T22:20:00.202Z,69.00
2018-05-27T22:22:28.527Z,69.00
2018-05-27T22:24:56.805Z,69.10
2018-05-27T22:27:25.158Z,69.60
2018-05-27T22:29:53.465Z,69.40
2018-05-27T22:32:21.768Z,69.90
2018-05-27T22:34:50.124Z,70.00
2018-05-27T22:37:18.409Z,70.40
2018-05-27T22:39:46.708Z,70.90
2018-05-27T22:42:14.980Z,71.10
2018-05-27T22:44:43.265Z,70.90
2018-05-27T22:47:11.558Z,70.70
2018-05-27T22:49:39.864Z,70.90
2018-05-27T22:52:08.163Z,71.30
2018-05-27T22:54:36.623Z,71.50
2018-05-27T22:57:04.897Z,72.00
2018-05-27T22:59:33.935Z,72.70
2018-05-27T23:02:02.472Z,72.60
2018-05-27T23:04:30.770Z,72.80
2018-05-27T23:06:59.038Z,72.80
2018-05-27T23:09:27.319Z,72.80
2018-05-27T23:11:55.635Z,72.80
2018-05-27T23:14:23.927Z,72.80
2018-05-27T23:16:53.084Z,72.80
2018-05-27T23:19:21.388Z,72.80
2018-05-27T23:21:49.718Z,73.00
2018-05-27T23:24:18.794Z,72.80
2018-05-27T23:26:47.071Z,72.70
2018-05-27T23:29:15.369Z,73.00
2018-05-27T23:31:43.784Z,73.30
2018-05-27T23:34:12.838Z,73.30
2018-05-27T23:36:41.167Z,73.20
2018-05-27T23:39:09.808Z,73.70
2018-05-27T23:41:38.111Z,73.20
2018-05-27T23:44:06.422Z,73.70
2018-05-27T23:46:34.733Z,73.90
2018-05-27T23:49:04.016Z,73.60
2018-05-27T23:51:32.298Z,73.20
2018-05-27T23:54:00.593Z,73.60
2018-05-27T23:56:28.867Z,73.50
2018-05-27T23:58:57.145Z,73.80
